Time;durP1;ratioP1;P1;durP2;ratioP2;P2;SDS_P1;SDS_P2;PMS_P1;PMS_P2;Temp;Humidity;BMP_temperature;BMP_pressure;BME280_temperature;BME280_humidity;BME280_pressure;Samples;Min_cycle;Max_cycle;Signal;HPM_P1;HPM_P2
2022/01/27 00:01:27;;;;;;;15.30;7.70;;;;;;;-0.09;97.28;97154.95;107162;1278;35295;-76
2022/01/27 00:04:10;;;;;;;14.20;7.40;;;;;;;-0.09;97.29;97149.86;107075;1277;59753;-76
2022/01/27 00:06:42;;;;;;;11.80;8.10;;;;;;;-0.09;97.10;97142.73;107110;1277;32761;-77
2022/01/27 00:09:22;;;;;;;16.00;9.60;;;;;;;-0.10;97.00;97138.52;107059;1279;51836;-77
2022/01/27 00:11:53;;;;;;;17.30;9.80;;;;;;;-0.11;97.03;97136.02;107011;1280;59711;-77
2022/01/27 00:14:24;;;;;;;11.90;6.50;;;;;;;-0.12;97.06;97129.83;107257;1274;32365;-76
2022/01/27 00:17:02;;;;;;;9.90;6.90;;;;;;;-0.13;97.19;97130.63;107328;1273;43248;-76
2022/01/27 00:19:33;;;;;;;13.70;8.50;;;;;;;-0.14;96.94;97125.84;107221;1274;33193;-76
2022/01/27 00:22:04;;;;;;;13.80;8.60;;;;;;;-0.13;96.98;97126.29;107341;1273;32485;-76
2022/01/27 00:24:35;;;;;;;16.10;10.30;;;;;;;-0.14;96.93;97126.55;107262;1273;34231;-77
2022/01/27 00:27:07;;;;;;;16.50;9.40;;;;;;;-0.15;96.88;97127.51;107251;1273;92522;-76
2022/01/27 00:29:38;;;;;;;15.00;8.70;;;;;;;-0.16;97.06;97122.69;107243;1273;61365;-76
2022/01/27 00:32:10;;;;;;;16.30;10.00;;;;;;;-0.15;96.68;97131.91;107279;1274;58902;-77
2022/01/27 00:34:41;;;;;;;17.40;8.60;;;;;;;-0.15;97.00;97138.10;107372;1273;32191;-76
2022/01/27 00:37:12;;;;;;;17.90;9.00;;;;;;;-0.13;96.87;97136.52;107400;1272;33727;-77
2022/01/27 00:39:43;;;;;;;11.80;7.80;;;;;;;-0.10;96.89;97146.90;107396;1273;30010;-77
2022/01/27 00:42:14;;;;;;;9.20;6.50;;;;;;;-0.08;96.81;97154.64;107241;1273;86131;-77
2022/01/27 00:44:45;;;;;;;15.00;8.70;;;;;;;-0.08;96.79;97161.73;107375;1274;60892;-77
2022/01/27 00:47:16;;;;;;;15.20;8.70;;;;;;;-0.09;97.04;97164.77;107337;1274;79789;-76
2022/01/27 00:49:48;;;;;;;13.80;7.80;;;;;;;-0.08;96.82;97164.46;107396;1271;54685;-77
2022/01/27 00:52:26;;;;;;;9.70;6.80;;;;;;;-0.08;96.57;97170.98;107368;1274;38469;-75
2022/01/27 00:54:57;;;;;;;12.50;6.80;;;;;;;-0.08;96.23;97177.57;107185;1273;85349;-76
2022/01/27 00:57:39;;;;;;;14.20;8.90;;;;;;;-0.06;96.14;97181.41;107336;1274;43189;-76
2022/01/27 01:00:13;;;;;;;10.10;5.40;;;;;;;-0.03;96.18;97190.64;107260;1274;69775;-77
2022/01/27 01:02:50;;;;;;;13.40;7.80;;;;;;;-0.04;96.00;97189.52;107411;1274;57195;-77
2022/01/27 01:05:38;;;;;;;13.60;8.30;;;;;;;-0.05;96.11;97187.71;107324;1274;62327;-76
2022/01/27 01:08:49;;;;;;;13.80;7.80;;;;;;;-0.05;95.70;97182.30;107341;1274;48072;-76
2022/01/27 01:11:30;;;;;;;8.90;6.40;;;;;;;-0.06;95.50;97179.17;107343;1274;32902;-77
2022/01/27 01:16:50;;;;;;;7.50;4.90;;;;;;;-0.10;95.15;97175.60;107230;1274;48920;-76
2022/01/27 01:19:33;;;;;;;7.70;4.40;;;;;;;-0.13;94.88;97180.13;107221;1274;39588;-76
2022/01/27 01:29:24;;;;;;;7.70;4.80;;;;;;;-0.16;94.62;97177.53;107329;1274;32994;-77
2022/01/27 01:30:50;;;;;;;9.50;4.90;;;;;;;-0.27;94.29;97182.13;107278;1274;41598;-77
2022/01/27 01:33:31;;;;;;;8.20;5.10;;;;;;;-0.32;93.96;97173.67;107183;1274;39443;-77
2022/01/27 01:36:12;;;;;;;9.40;5.20;;;;;;;-0.36;93.78;97179.08;107317;1274;34297;-77
2022/01/27 01:38:45;;;;;;;10.90;4.90;;;;;;;-0.42;93.76;97164.43;107399;1274;46255;-77
2022/01/27 01:41:16;;;;;;;8.10;5.60;;;;;;;-0.47;94.05;97172.46;107416;1274;32822;-77
2022/01/27 01:43:47;;;;;;;10.90;5.20;;;;;;;-0.49;93.93;97170.98;107383;1274;40373;-78
2022/01/27 01:46:18;;;;;;;10.00;5.40;;;;;;;-0.48;93.92;97171.30;107341;1274;31332;-76
2022/01/27 01:48:51;;;;;;;7.80;4.40;;;;;;;-0.52;93.87;97168.09;107317;1273;45907;-77
2022/01/27 01:51:26;;;;;;;7.90;4.30;;;;;;;-0.54;93.89;97178.21;107332;1274;31963;-76
2022/01/27 01:53:58;;;;;;;6.60;4.70;;;;;;;-0.56;93.90;97166.50;107219;1274;60318;-77
2022/01/27 01:56:29;;;;;;;11.10;5.90;;;;;;;-0.57;93.41;97170.69;107162;1274;33027;-77
2022/01/27 01:59:01;;;;;;;6.40;4.50;;;;;;;-0.59;93.38;97167.20;107246;1274;34539;-77
2022/01/27 02:01:32;;;;;;;10.90;5.80;;;;;;;-0.60;93.07;97171.52;107326;1274;35631;-77
2022/01/27 02:04:06;;;;;;;10.00;5.30;;;;;;;-0.61;92.88;97169.35;107260;1274;100615;-77
2022/01/27 02:06:45;;;;;;;6.70;4.00;;;;;;;-0.61;92.34;97169.40;107337;1274;58627;-78
2022/01/27 02:18:00;;;;;;;6.70;3.80;;;;;;;-0.65;92.28;97150.36;107262;1274;66648;-77
2022/01/27 02:20:32;;;;;;;6.90;3.00;;;;;;;-0.66;92.25;97157.69;107301;1274;47474;-78
2022/01/27 02:23:06;;;;;;;5.30;3.20;;;;;;;-0.68;92.42;97155.64;107081;1274;100125;-77
2022/01/27 02:25:38;;;;;;;5.90;3.80;;;;;;;-0.69;92.29;97153.00;107318;1274;58910;-77
2022/01/27 02:28:09;;;;;;;6.50;2.90;;;;;;;-0.69;92.05;97143.70;107296;1274;32537;-77
2022/01/27 02:30:40;;;;;;;7.30;3.50;;;;;;;-0.71;91.96;97160.19;107249;1274;43064;-77
2022/01/27 02:33:10;;;;;;;7.80;5.20;;;;;;;-0.71;92.26;97152.84;107232;1274;44195;-77
2022/01/27 02:35:41;;;;;;;7.40;3.70;;;;;;;-0.72;92.18;97154.32;107278;1274;34384;-77
2022/01/27 02:38:12;;;;;;;10.10;5.60;;;;;;;-0.73;91.87;97154.23;107313;1274;30273;-77
2022/01/27 02:40:54;;;;;;;9.70;5.00;;;;;;;-0.74;91.93;97157.44;107427;1274;32781;-77
2022/01/27 02:43:25;;;;;;;8.20;4.90;;;;;;;-0.74;91.87;97161.36;107291;1274;35297;-77
2022/01/27 02:46:06;;;;;;;9.10;5.60;;;;;;;-0.75;91.43;97161.56;107378;1274;33319;-77
2022/01/27 02:48:37;;;;;;;11.00;5.40;;;;;;;-0.75;91.91;97158.99;107353;1274;32167;-76
2022/01/27 02:51:08;;;;;;;10.40;6.10;;;;;;;-0.77;91.60;97147.61;107288;1274;42013;-76
2022/01/27 02:53:39;;;;;;;6.90;4.40;;;;;;;-0.79;91.70;97139.88;107327;1274;36347;-77
2022/01/27 02:56:12;;;;;;;8.00;4.40;;;;;;;-0.81;91.64;97148.36;107319;1274;40104;-76
2022/01/27 02:58:45;;;;;;;6.90;4.00;;;;;;;-0.83;91.51;97144.15;107251;1274;30000;-76
2022/01/27 03:01:22;;;;;;;9.50;4.50;;;;;;;-0.86;91.85;97140.27;107288;1274;38859;-77
2022/01/27 03:03:52;;;;;;;6.80;4.20;;;;;;;-0.88;91.99;97134.43;107357;1273;31138;-76
2022/01/27 03:06:24;;;;;;;4.40;2.50;;;;;;;-0.88;92.20;97130.14;107336;1274;38245;-76
2022/01/27 03:08:54;;;;;;;9.70;4.00;;;;;;;-0.89;92.14;97126.38;107288;1274;40595;-76
2022/01/27 03:11:41;;;;;;;7.60;4.40;;;;;;;-0.88;92.26;97123.02;107254;1274;35491;-76
2022/01/27 03:14:16;;;;;;;5.90;3.10;;;;;;;-0.87;92.00;97133.17;107343;1274;31438;-76
2022/01/27 03:16:47;;;;;;;8.70;4.20;;;;;;;-0.86;91.92;97121.58;107370;1274;45984;-77
2022/01/27 03:19:18;;;;;;;6.30;3.40;;;;;;;-0.85;92.11;97127.70;107341;1274;28487;-74
2022/01/27 03:21:49;;;;;;;7.30;3.30;;;;;;;-0.87;91.97;97127.02;107317;1274;38528;-75
2022/01/27 03:24:21;;;;;;;5.90;4.00;;;;;;;-0.85;91.87;97119.73;107397;1274;36523;-76
2022/01/27 03:26:52;;;;;;;6.90;4.50;;;;;;;-0.84;91.67;97126.17;107338;1274;32983;-76
2022/01/27 03:29:24;;;;;;;4.90;2.80;;;;;;;-0.83;91.47;97123.73;107293;1274;36991;-76
2022/01/27 03:31:56;;;;;;;6.40;3.20;;;;;;;-0.82;91.30;97115.65;107317;1274;45962;-76
2022/01/27 03:34:26;;;;;;;8.30;5.10;;;;;;;-0.81;91.35;97116.73;107348;1273;37568;-76
2022/01/27 03:36:57;;;;;;;6.10;3.50;;;;;;;-0.80;91.24;97119.18;107273;1274;37511;-76
2022/01/27 03:39:28;;;;;;;5.00;2.90;;;;;;;-0.78;90.76;97117.73;107269;1273;40679;-76
2022/01/27 03:42:00;;;;;;;6.10;2.90;;;;;;;-0.78;90.85;97112.70;107294;1274;40662;-77
2022/01/27 03:44:31;;;;;;;6.60;3.60;;;;;;;-0.79;91.01;97109.69;107277;1274;40774;-76
2022/01/27 03:47:03;;;;;;;3.80;2.70;;;;;;;-0.80;90.59;97100.28;107324;1274;32930;-76
2022/01/27 03:49:34;;;;;;;6.20;3.10;;;;;;;-0.80;90.82;97108.33;107353;1274;31652;-76
2022/01/27 03:52:06;;;;;;;8.30;3.80;;;;;;;-0.81;90.89;97098.98;107218;1274;33092;-76
2022/01/27 03:54:37;;;;;;;8.70;5.10;;;;;;;-0.82;90.98;97099.59;107277;1274;29753;-76
2022/01/27 03:57:08;;;;;;;10.50;3.70;;;;;;;-0.84;91.25;97091.70;107333;1274;32622;-76
2022/01/27 03:59:39;;;;;;;7.00;3.70;;;;;;;-0.86;91.56;97093.46;107275;1273;40849;-76
2022/01/27 04:02:10;;;;;;;7.70;4.20;;;;;;;-0.88;91.55;97083.77;107313;1274;45331;-76
2022/01/27 04:04:41;;;;;;;6.60;3.20;;;;;;;-0.87;91.65;97085.45;107328;1274;35393;-76
2022/01/27 04:07:12;;;;;;;6.70;3.10;;;;;;;-0.87;91.85;97074.00;107258;1274;45953;-76
2022/01/27 04:09:42;;;;;;;6.50;3.50;;;;;;;-0.88;92.13;97071.32;107363;1274;36496;-76
2022/01/27 04:12:13;;;;;;;5.20;3.50;;;;;;;-0.89;92.13;97073.89;107408;1274;33562;-76
2022/01/27 04:14:45;;;;;;;7.00;4.50;;;;;;;-0.88;91.94;97074.64;107338;1273;41155;-76
2022/01/27 04:17:16;;;;;;;8.20;3.70;;;;;;;-0.88;91.80;97081.33;107372;1273;42714;-76
2022/01/27 04:19:46;;;;;;;5.10;3.30;;;;;;;-0.88;91.58;97078.57;107357;1273;28298;-76
2022/01/27 04:22:17;;;;;;;7.20;5.20;;;;;;;-0.88;91.57;97076.05;107331;1273;43212;-76
2022/01/27 04:24:52;;;;;;;7.20;4.50;;;;;;;-0.89;91.64;97075.96;107354;1273;33675;-75
2022/01/27 04:27:29;;;;;;;5.80;4.10;;;;;;;-0.89;91.53;97077.52;107343;1273;32970;-76
2022/01/27 04:30:01;;;;;;;9.10;4.80;;;;;;;-0.88;91.29;97069.23;107303;1273;32358;-76
2022/01/27 04:32:40;;;;;;;8.20;5.50;;;;;;;-0.87;91.32;97069.48;107290;1273;32849;-76
2022/01/27 04:35:15;;;;;;;7.80;5.80;;;;;;;-0.86;90.93;97070.88;107312;1273;26492;-76
2022/01/27 04:38:01;;;;;;;7.10;3.70;;;;;;;-0.86;91.02;97078.80;107340;1273;41422;-76
2022/01/27 04:40:38;;;;;;;7.10;4.50;;;;;;;-0.85;90.77;97077.02;107260;1274;33705;-77
2022/01/27 04:43:17;;;;;;;7.20;4.00;;;;;;;-0.84;90.87;97088.33;107301;1273;33466;-76
2022/01/27 04:45:57;;;;;;;7.60;4.00;;;;;;;-0.83;90.66;97083.49;107310;1273;43725;-75
2022/01/27 04:48:35;;;;;;;7.90;4.10;;;;;;;-0.81;90.69;97085.02;107352;1273;30116;-77
2022/01/27 04:51:09;;;;;;;7.50;3.40;;;;;;;-0.78;90.67;97082.17;107302;1273;42716;-77
2022/01/27 04:53:45;;;;;;;6.30;4.00;;;;;;;-0.76;90.42;97071.48;107315;1271;30837;-77
2022/01/27 04:56:17;;;;;;;5.90;3.20;;;;;;;-0.72;90.21;97072.38;107378;1271;42255;-77
2022/01/27 04:58:53;;;;;;;5.80;3.80;;;;;;;-0.70;90.17;97067.83;107438;1271;35564;-77
2022/01/27 05:01:30;;;;;;;8.20;4.40;;;;;;;-0.69;90.24;97063.32;107294;1273;50912;-76
2022/01/27 05:04:07;;;;;;;6.30;3.40;;;;;;;-0.67;90.10;97060.11;107317;1271;33764;-77
2022/01/27 05:06:38;;;;;;;8.20;4.00;;;;;;;-0.66;90.26;97061.71;107366;1271;29533;-77
2022/01/27 05:09:09;;;;;;;5.90;3.70;;;;;;;-0.66;90.06;97050.62;107338;1271;35460;-77
2022/01/27 05:11:48;;;;;;;7.70;3.70;;;;;;;-0.67;89.74;97054.70;107301;1270;42433;-76
2022/01/27 05:14:22;;;;;;;5.20;3.30;;;;;;;-0.68;90.03;97054.70;107355;1271;30690;-76
2022/01/27 05:16:54;;;;;;;5.30;3.60;;;;;;;-0.69;90.13;97055.30;107276;1271;42105;-76
2022/01/27 05:19:27;;;;;;;3.80;2.50;;;;;;;-0.68;89.75;97059.67;107350;1271;45969;-76
2022/01/27 05:21:58;;;;;;;8.30;4.00;;;;;;;-0.66;89.65;97062.64;107240;1271;46686;-77
2022/01/27 05:24:29;;;;;;;5.80;2.90;;;;;;;-0.65;89.71;97066.48;107312;1271;41780;-77
2022/01/27 05:27:00;;;;;;;4.00;2.90;;;;;;;-0.64;89.77;97065.92;107302;1271;35337;-76
2022/01/27 05:29:31;;;;;;;5.40;3.00;;;;;;;-0.64;89.89;97065.73;107307;1273;36347;-76
2022/01/27 05:32:02;;;;;;;7.20;4.10;;;;;;;-0.63;89.88;97065.48;107284;1271;37638;-77
2022/01/27 05:34:33;;;;;;;5.90;3.20;;;;;;;-0.62;89.52;97069.65;107370;1271;27645;-77
2022/01/27 05:37:05;;;;;;;7.00;3.40;;;;;;;-0.61;89.44;97065.61;107314;1273;38530;-76
2022/01/27 05:39:36;;;;;;;5.30;3.70;;;;;;;-0.60;89.60;97060.56;107351;1271;32479;-77
2022/01/27 05:42:07;;;;;;;5.40;3.30;;;;;;;-0.58;89.52;97061.97;107259;1271;47832;-77
2022/01/27 05:44:38;;;;;;;5.30;3.50;;;;;;;-0.57;89.77;97064.73;107325;1273;37235;-76
2022/01/27 05:47:09;;;;;;;5.80;3.40;;;;;;;-0.55;89.56;97062.06;107308;1271;44189;-77
2022/01/27 05:49:40;;;;;;;5.40;3.50;;;;;;;-0.52;89.20;97058.79;107323;1271;48387;-77
2022/01/27 05:52:11;;;;;;;6.90;3.80;;;;;;;-0.53;89.23;97059.92;107329;1273;35868;-77
2022/01/27 05:54:42;;;;;;;6.30;3.80;;;;;;;-0.53;89.20;97055.27;107384;1271;35678;-77
2022/01/27 05:57:13;;;;;;;5.30;3.20;;;;;;;-0.52;89.31;97052.45;107303;1271;39624;-76
2022/01/27 05:59:44;;;;;;;8.50;4.60;;;;;;;-0.52;89.27;97051.22;107368;1271;32941;-76
2022/01/27 06:02:15;;;;;;;5.90;3.50;;;;;;;-0.51;89.29;97049.98;107425;1271;29233;-77
2022/01/27 06:04:46;;;;;;;4.60;2.90;;;;;;;-0.51;89.30;97046.09;107388;1271;40444;-77
2022/01/27 06:07:17;;;;;;;5.00;2.70;;;;;;;-0.53;89.30;97051.70;107392;1271;31559;-77
2022/01/27 06:09:48;;;;;;;5.40;3.30;;;;;;;-0.54;89.05;97049.85;107425;1273;29273;-77
2022/01/27 06:12:19;;;;;;;5.70;3.70;;;;;;;-0.54;89.22;97048.02;107413;1271;39371;-76
2022/01/27 06:14:50;;;;;;;8.70;4.90;;;;;;;-0.52;89.28;97046.77;107298;1273;43174;-76
2022/01/27 06:17:22;;;;;;;8.70;4.40;;;;;;;-0.54;89.42;97044.05;107283;1273;31509;-76
2022/01/27 06:19:55;;;;;;;8.50;5.60;;;;;;;-0.54;89.36;97044.92;107342;1271;38775;-76
2022/01/27 06:22:26;;;;;;;11.70;6.20;;;;;;;-0.56;89.39;97034.27;107331;1271;40852;-76
2022/01/27 06:24:57;;;;;;;10.30;5.00;;;;;;;-0.59;89.53;97032.32;107330;1271;38791;-76
2022/01/27 06:27:28;;;;;;;12.50;7.00;;;;;;;-0.63;89.33;97017.06;107356;1271;34490;-77
2022/01/27 06:29:59;;;;;;;10.40;6.80;;;;;;;-0.65;89.28;97011.97;107378;1271;34316;-77
2022/01/27 06:32:31;;;;;;;10.70;6.40;;;;;;;-0.67;89.48;97002.48;107329;1273;32504;-77
2022/01/27 06:35:05;;;;;;;11.70;6.80;;;;;;;-0.67;89.53;96998.83;107356;1271;35850;-77
2022/01/27 06:37:41;;;;;;;12.00;8.00;;;;;;;-0.66;89.74;96997.55;107327;1271;39387;-76
2022/01/27 06:40:15;;;;;;;11.10;7.20;;;;;;;-0.68;89.77;96998.07;107350;1271;47674;-77
2022/01/27 06:42:47;;;;;;;13.90;8.30;;;;;;;-0.70;89.57;96994.31;107489;1271;31479;-77
2022/01/27 06:45:18;;;;;;;12.10;7.20;;;;;;;-0.71;89.63;96996.88;107543;1270;32553;-77
2022/01/27 06:47:49;;;;;;;11.10;7.30;;;;;;;-0.71;89.62;96982.69;107560;1270;32387;-76
2022/01/27 06:50:20;;;;;;;13.50;7.50;;;;;;;-0.71;89.61;96970.02;107543;1270;32644;-76
2022/01/27 06:52:51;;;;;;;14.10;8.40;;;;;;;-0.75;89.61;96965.13;107415;1270;41054;-76
2022/01/27 06:55:24;;;;;;;13.30;6.90;;;;;;;-0.77;89.52;96957.27;107432;1270;50613;-77
2022/01/27 06:57:55;;;;;;;13.50;7.70;;;;;;;-0.77;89.66;96954.11;107440;1270;65256;-76
2022/01/27 07:00:26;;;;;;;14.80;8.50;;;;;;;-0.75;89.72;96957.02;107377;1270;31475;-77
2022/01/27 07:02:57;;;;;;;12.60;8.00;;;;;;;-0.73;89.64;96957.20;107294;1270;41914;-78
2022/01/27 07:05:31;;;;;;;14.40;7.60;;;;;;;-0.73;89.64;96951.88;107488;1270;38262;-78
2022/01/27 07:08:02;;;;;;;10.70;5.50;;;;;;;-0.70;89.48;96961.33;107541;1270;44712;-78
2022/01/27 07:10:33;;;;;;;10.30;6.90;;;;;;;-0.62;89.75;96963.66;107462;1270;42747;-78
2022/01/27 07:13:04;;;;;;;11.00;6.80;;;;;;;-0.57;89.70;96943.39;107406;1270;31922;-77
2022/01/27 07:15:35;;;;;;;9.10;5.60;;;;;;;-0.53;89.77;96936.29;107482;1270;35157;-78
2022/01/27 07:18:06;;;;;;;11.20;6.00;;;;;;;-0.47;89.86;96936.98;107483;1270;59873;-78
2022/01/27 07:20:37;;;;;;;9.60;5.90;;;;;;;-0.43;89.52;96931.27;107563;1268;35502;-79
2022/01/27 07:23:12;;;;;;;5.70;3.90;;;;;;;-0.40;89.57;96931.23;107502;1268;66795;-77
2022/01/27 07:25:43;;;;;;;9.50;5.20;;;;;;;-0.30;89.44;96936.40;107660;1270;33977;-79
2022/01/27 07:28:14;;;;;;;9.20;5.30;;;;;;;-0.24;89.48;96932.72;107518;1270;55009;-79
2022/01/27 07:30:45;;;;;;;8.50;4.50;;;;;;;-0.21;89.17;96924.23;107648;1268;45929;-78
2022/01/27 07:33:16;;;;;;;10.00;6.20;;;;;;;-0.18;88.83;96919.50;107618;1267;50748;-78
2022/01/27 07:35:47;;;;;;;10.40;6.30;;;;;;;-0.18;88.77;96914.65;107228;1270;72108;-77
2022/01/27 07:38:22;;;;;;;8.40;5.60;;;;;;;-0.19;88.57;96919.15;107517;1268;33742;-75
2022/01/27 07:40:53;;;;;;;6.50;4.30;;;;;;;-0.20;88.43;96914.23;107398;1270;55811;-77
2022/01/27 07:43:24;;;;;;;11.70;6.10;;;;;;;-0.21;88.71;96917.79;107554;1268;40735;-77
2022/01/27 07:45:55;;;;;;;8.40;6.30;;;;;;;-0.18;88.62;96922.31;107552;1268;32965;-77
2022/01/27 07:48:26;;;;;;;11.90;6.20;;;;;;;-0.15;88.48;96927.29;107526;1268;56749;-77
2022/01/27 07:50:58;;;;;;;7.90;4.30;;;;;;;-0.10;88.71;96929.20;107494;1270;53449;-76
2022/01/27 07:53:29;;;;;;;6.80;4.40;;;;;;;-0.07;88.47;96919.94;107452;1268;36265;-77
2022/01/27 07:56:02;;;;;;;8.50;4.60;;;;;;;-0.09;88.22;96927.33;107448;1270;33771;-77
2022/01/27 07:58:38;;;;;;;9.70;6.30;;;;;;;-0.12;88.16;96931.02;107536;1268;58092;-77
2022/01/27 08:01:10;;;;;;;13.00;7.00;;;;;;;-0.14;88.13;96934.81;107608;1268;33725;-77
2022/01/27 08:03:42;;;;;;;12.50;7.30;;;;;;;-0.16;88.02;96929.27;107342;1268;58947;-77
2022/01/27 08:06:13;;;;;;;12.90;7.20;;;;;;;-0.17;88.01;96934.09;107442;1268;70039;-77
2022/01/27 08:08:45;;;;;;;11.30;5.90;;;;;;;-0.18;88.02;96935.13;107630;1268;35654;-77
2022/01/27 08:11:16;;;;;;;11.20;6.60;;;;;;;-0.19;88.06;96930.97;107562;1268;66227;-77
2022/01/27 08:13:46;;;;;;;12.40;6.50;;;;;;;-0.21;88.34;96923.05;107529;1270;31310;-77
2022/01/27 08:16:18;;;;;;;12.10;7.20;;;;;;;-0.20;88.15;96919.80;107421;1270;33047;-77
2022/01/27 08:18:49;;;;;;;13.70;7.60;;;;;;;-0.21;88.25;96919.52;107451;1270;40802;-75
2022/01/27 08:21:20;;;;;;;13.40;7.30;;;;;;;-0.22;88.28;96920.77;107450;1270;38639;-76
2022/01/27 08:23:53;;;;;;;14.60;8.60;;;;;;;-0.30;88.22;96922.28;107481;1270;38733;-76
2022/01/27 08:26:34;;;;;;;13.10;8.70;;;;;;;-0.33;88.05;96912.27;107434;1270;36686;-76
2022/01/27 08:29:15;;;;;;;14.10;8.00;;;;;;;-0.32;88.31;96905.80;107541;1269;32658;-76
2022/01/27 08:31:58;;;;;;;17.80;9.50;;;;;;;-0.28;88.27;96906.05;107630;1268;38082;-76
2022/01/27 08:34:36;;;;;;;13.60;8.80;;;;;;;-0.23;88.11;96902.97;107506;1268;38136;-76
2022/01/27 08:37:09;;;;;;;16.20;8.60;;;;;;;-0.11;88.15;96898.09;107562;1268;35676;-76
2022/01/27 08:39:41;;;;;;;17.50;9.20;;;;;;;-0.08;87.55;96891.04;107575;1268;34684;-77
2022/01/27 08:42:13;;;;;;;13.10;8.20;;;;;;;-0.11;87.60;96879.54;107502;1268;31784;-77
2022/01/27 08:44:45;;;;;;;12.80;7.40;;;;;;;-0.14;87.43;96879.56;107486;1270;35838;-76
2022/01/27 08:47:18;;;;;;;11.90;6.40;;;;;;;0.01;87.53;96876.10;107595;1270;37423;-75
2022/01/27 08:49:49;;;;;;;12.50;7.70;;;;;;;0.28;87.56;96864.98;107459;1270;47862;-75
2022/01/27 08:52:19;;;;;;;13.80;8.40;;;;;;;0.41;86.99;96865.48;107312;1270;41226;-75
2022/01/27 08:54:50;;;;;;;11.00;6.50;;;;;;;0.44;86.70;96862.31;107467;1270;37340;-75
2022/01/27 08:57:21;;;;;;;12.30;6.00;;;;;;;0.55;86.55;96858.72;107616;1268;39833;-75
2022/01/27 08:59:53;;;;;;;15.60;8.50;;;;;;;0.70;86.23;96856.89;107520;1268;44476;-76
2022/01/27 09:02:24;;;;;;;11.50;6.10;;;;;;;0.74;85.78;96857.34;107374;1270;66270;-75
2022/01/27 09:04:55;;;;;;;12.70;7.10;;;;;;;0.78;85.10;96861.65;107408;1270;34804;-74
2022/01/27 09:07:26;;;;;;;15.40;7.70;;;;;;;0.94;84.97;96871.35;107502;1268;62070;-75
2022/01/27 09:09:58;;;;;;;14.60;8.40;;;;;;;1.00;84.84;96881.44;107546;1267;41249;-75
2022/01/27 09:12:28;;;;;;;17.20;9.10;;;;;;;1.20;85.14;96879.09;107545;1268;36571;-75
2022/01/27 09:15:01;;;;;;;15.90;8.60;;;;;;;1.39;84.95;96866.52;107459;1270;40434;-75
2022/01/27 09:17:39;;;;;;;13.40;7.60;;;;;;;1.38;84.30;96866.04;107514;1268;47180;-75
2022/01/27 09:20:13;;;;;;;13.20;7.80;;;;;;;1.41;84.39;96869.01;107523;1268;28968;-75
2022/01/27 09:22:44;;;;;;;15.90;9.10;;;;;;;1.63;84.50;96864.92;107524;1270;38230;-76
2022/01/27 09:25:19;;;;;;;13.90;8.90;;;;;;;1.87;84.23;96861.11;107570;1270;35529;-75
2022/01/27 09:27:52;;;;;;;14.70;9.10;;;;;;;2.28;84.31;96855.80;107355;1270;56007;-74
2022/01/27 09:30:23;;;;;;;14.30;8.00;;;;;;;2.79;83.74;96855.02;107463;1270;56830;-74
2022/01/27 09:32:55;;;;;;;12.10;7.60;;;;;;;3.24;83.30;96854.63;107386;1270;40171;-74
2022/01/27 09:35:28;;;;;;;14.20;7.70;;;;;;;3.48;81.88;96856.89;107435;1270;39273;-74
2022/01/27 09:38:00;;;;;;;9.60;5.90;;;;;;;3.22;80.18;96857.11;107449;1270;49139;-75
2022/01/27 09:40:33;;;;;;;11.90;6.90;;;;;;;2.91;79.39;96853.70;107301;1270;47795;-75
2022/01/27 09:43:05;;;;;;;9.50;5.80;;;;;;;2.60;78.83;96839.71;107378;1270;31651;-75
2022/01/27 09:45:39;;;;;;;13.60;7.10;;;;;;;2.18;78.57;96843.48;107434;1270;39934;-75
2022/01/27 09:48:14;;;;;;;13.80;7.60;;;;;;;2.00;79.20;96839.58;107367;1270;38034;-75
2022/01/27 09:51:10;;;;;;;12.10;7.60;;;;;;;1.87;79.43;96826.17;107532;1270;32901;-75
2022/01/27 09:53:43;;;;;;;13.80;8.10;;;;;;;1.80;79.61;96820.16;107417;1268;35294;-74
2022/01/27 09:56:15;;;;;;;9.20;5.60;;;;;;;1.67;79.30;96808.72;107435;1270;35737;-75
2022/01/27 09:58:46;;;;;;;14.10;8.10;;;;;;;1.46;79.16;96810.33;107552;1269;30458;-75
2022/01/27 10:01:17;;;;;;;13.40;6.70;;;;;;;1.34;79.74;96811.37;107471;1270;45859;-75
2022/01/27 10:03:59;;;;;;;11.60;6.30;;;;;;;1.26;80.05;96805.60;107354;1268;30564;-75
2022/01/27 10:06:31;;;;;;;15.10;7.50;;;;;;;1.13;80.06;96803.42;107513;1270;33275;-75
2022/01/27 10:09:24;;;;;;;11.00;6.20;;;;;;;1.08;80.61;96807.70;107458;1268;43643;-75
2022/01/27 10:11:55;;;;;;;10.10;6.30;;;;;;;1.19;81.08;96805.50;107488;1268;30458;-75
2022/01/27 10:14:31;;;;;;;10.10;6.00;;;;;;;1.28;81.23;96802.54;107539;1270;31825;-75
2022/01/27 10:17:04;;;;;;;10.10;4.90;;;;;;;1.30;81.07;96792.20;107470;1268;64453;-75
2022/01/27 10:19:37;;;;;;;9.50;5.50;;;;;;;1.23;80.62;96793.21;107510;1270;41015;-75
2022/01/27 10:22:13;;;;;;;7.30;4.30;;;;;;;1.26;80.82;96783.02;107431;1270;55186;-74
2022/01/27 10:24:46;;;;;;;9.40;5.60;;;;;;;1.21;80.93;96788.92;107497;1268;36891;-75
2022/01/27 10:27:24;;;;;;;9.20;5.80;;;;;;;1.30;81.05;96790.27;107522;1269;31807;-75
2022/01/27 10:32:48;;;;;;;8.10;4.70;;;;;;;1.36;80.82;96785.21;107511;1270;44426;-75
2022/01/27 10:35:24;;;;;;;8.50;5.00;;;;;;;1.33;80.65;96788.63;107574;1270;32400;-74
2022/01/27 10:38:01;;;;;;;8.60;5.00;;;;;;;1.33;80.54;96781.05;107626;1270;30774;-74
2022/01/27 10:40:34;;;;;;;8.90;5.00;;;;;;;1.35;80.66;96773.14;107452;1270;41377;-74
2022/01/27 10:43:17;;;;;;;8.40;5.20;;;;;;;1.34;80.15;96763.59;107429;1270;31967;-75
2022/01/27 10:46:10;;;;;;;9.50;5.10;;;;;;;1.22;79.80;96752.36;107520;1270;27468;-74
2022/01/27 10:48:47;;;;;;;7.30;3.60;;;;;;;1.13;80.02;96742.25;107152;1270;59114;-75
2022/01/27 10:51:25;;;;;;;4.20;2.90;;;;;;;1.11;80.28;96732.90;107547;1270;45864;-74
2022/01/27 10:54:37;;;;;;;8.30;4.60;;;;;;;1.09;80.18;96715.24;107405;1270;30822;-75
2022/01/27 10:57:11;;;;;;;9.30;4.80;;;;;;;1.17;80.52;96699.80;106992;1273;38298;-76
2022/01/27 10:59:44;;;;;;;8.40;4.60;;;;;;;1.27;80.57;96682.41;107086;1273;39084;-75
2022/01/27 11:02:18;;;;;;;5.90;4.10;;;;;;;1.31;80.28;96675.11;107306;1273;30315;-74
2022/01/27 11:04:51;;;;;;;7.10;4.20;;;;;;;1.31;79.86;96660.35;107223;1273;41131;-75
2022/01/27 11:07:25;;;;;;;8.40;4.90;;;;;;;1.22;78.92;96633.45;106947;1273;45975;-75
2022/01/27 11:10:01;;;;;;;8.80;4.70;;;;;;;1.06;78.79;96623.68;107297;1273;57606;-75
2022/01/27 11:12:32;;;;;;;11.30;5.40;;;;;;;1.02;79.10;96618.70;107263;1273;40785;-75
2022/01/27 11:15:03;;;;;;;9.70;5.50;;;;;;;1.05;79.15;96600.75;107135;1273;40292;-76
2022/01/27 11:17:38;;;;;;;11.20;6.30;;;;;;;1.05;78.69;96593.16;107288;1272;36592;-74
2022/01/27 11:20:27;;;;;;;10.10;6.20;;;;;;;1.01;78.39;96599.03;107263;1271;43819;-75
2022/01/27 11:23:24;;;;;;;9.40;4.90;;;;;;;1.04;78.35;96598.69;107204;1273;46912;-74
2022/01/27 11:25:58;;;;;;;8.80;5.30;;;;;;;1.04;78.08;96595.14;106961;1271;44590;-75
2022/01/27 11:28:31;;;;;;;11.40;5.70;;;;;;;0.98;78.08;96613.35;106968;1273;45827;-76
2022/01/27 11:31:24;;;;;;;9.00;4.90;;;;;;;0.99;78.20;96591.95;107184;1273;42993;-75
2022/01/27 11:34:04;;;;;;;10.90;6.60;;;;;;;1.00;78.42;96575.91;107164;1273;47033;-75
2022/01/27 11:36:36;;;;;;;12.50;7.00;;;;;;;1.08;78.84;96586.27;107387;1270;44072;-74
2022/01/27 11:39:12;;;;;;;10.50;5.50;;;;;;;1.21;78.75;96576.86;107356;1270;43502;-75
2022/01/27 11:41:47;;;;;;;10.40;5.80;;;;;;;1.28;78.55;96577.88;107524;1270;36363;-74
2022/01/27 11:44:32;;;;;;;12.70;6.70;;;;;;;1.29;78.55;96593.13;107527;1270;37443;-75
2022/01/27 11:47:32;;;;;;;10.70;6.00;;;;;;;1.30;78.51;96590.31;107512;1270;33095;-75
2022/01/27 11:50:11;;;;;;;11.50;7.00;;;;;;;1.27;78.80;96594.15;107446;1268;52137;-75
2022/01/27 11:52:53;;;;;;;11.80;7.20;;;;;;;1.33;78.72;96589.30;107404;1270;35746;-75
2022/01/27 11:55:46;;;;;;;11.10;5.10;;;;;;;1.38;78.81;96582.91;107486;1270;35508;-75
2022/01/27 11:58:22;;;;;;;10.80;7.10;;;;;;;1.31;78.54;96595.88;107282;1269;200129;-75
2022/01/27 12:01:27;;;;;;;11.60;6.60;;;;;;;1.36;78.69;96591.58;107571;1270;35950;-75
2022/01/27 12:04:18;;;;;;;11.20;6.80;;;;;;;1.43;78.72;96569.84;107582;1268;37463;-75
2022/01/27 12:07:09;;;;;;;11.20;6.60;;;;;;;1.51;78.80;96571.34;107449;1270;40451;-74
2022/01/27 12:09:41;;;;;;;9.70;6.00;;;;;;;1.62;78.83;96576.86;107430;1269;30972;-75
2022/01/27 12:12:28;;;;;;;9.90;5.50;;;;;;;1.64;78.43;96581.13;107464;1270;37783;-75
2022/01/27 12:15:12;;;;;;;11.90;7.00;;;;;;;1.54;78.05;96576.90;107478;1270;39629;-74
2022/01/27 12:17:43;;;;;;;11.40;6.00;;;;;;;1.49;78.39;96566.90;107542;1270;32627;-75